sensor_id;sensor_type;location;lat;lon;timestamp;temperature;humidity
2957;DHT22;1488;51.548;7.222;2023-05-29T00:02:07;23.90;80.30
2957;DHT22;1488;51.548;7.222;2023-05-29T00:04:34;23.90;80.20
2957;DHT22;1488;51.548;7.222;2023-05-29T00:07:03;23.90;80.00
2957;DHT22;1488;51.548;7.222;2023-05-29T00:09:30;23.90;79.90
2957;DHT22;1488;51.548;7.222;2023-05-29T00:11:58;23.90;79.90
2957;DHT22;1488;51.548;7.222;2023-05-29T00:14:26;23.90;79.70
2957;DHT22;1488;51.548;7.222;2023-05-29T00:16:53;23.90;79.50
2957;DHT22;1488;51.548;7.222;2023-05-29T00:19:20;23.80;79.30
2957;DHT22;1488;51.548;7.222;2023-05-29T00:21:47;23.80;79.10
2957;DHT22;1488;51.548;7.222;2023-05-29T00:24:14;23.90;79.00
2957;DHT22;1488;51.548;7.222;2023-05-29T00:26:41;23.80;78.70
2957;DHT22;1488;51.548;7.222;2023-05-29T00:29:09;23.90;78.70
2957;DHT22;1488;51.548;7.222;2023-05-29T00:31:36;23.90;78.50
2957;DHT22;1488;51.548;7.222;2023-05-29T00:34:03;23.80;78.40
2957;DHT22;1488;51.548;7.222;2023-05-29T00:36:30;23.80;78.50
2957;DHT22;1488;51.548;7.222;2023-05-29T00:38:57;23.90;78.50
2957;DHT22;1488;51.548;7.222;2023-05-29T00:41:24;23.80;78.40
2957;DHT22;1488;51.548;7.222;2023-05-29T00:43:50;23.80;78.30
2957;DHT22;1488;51.548;7.222;2023-05-29T00:46:19;23.80;78.40
2957;DHT22;1488;51.548;7.222;2023-05-29T00:48:47;23.80;78.10
2957;DHT22;1488;51.548;7.222;2023-05-29T00:51:14;23.80;78.00
2957;DHT22;1488;51.548;7.222;2023-05-29T00:53:43;23.80;78.90
2957;DHT22;1488;51.548;7.222;2023-05-29T00:56:12;23.80;78.00
2957;DHT22;1488;51.548;7.222;2023-05-29T00:58:39;23.80;77.90
2957;DHT22;1488;51.548;7.222;2023-05-29T01:01:06;23.80;77.90
2957;DHT22;1488;51.548;7.222;2023-05-29T01:03:34;23.80;77.70
2957;DHT22;1488;51.548;7.222;2023-05-29T01:06:01;23.80;77.60
2957;DHT22;1488;51.548;7.222;2023-05-29T01:08:29;23.80;77.50
2957;DHT22;1488;51.548;7.222;2023-05-29T01:11:08;23.80;77.30
2957;DHT22;1488;51.548;7.222;2023-05-29T01:13:38;23.80;77.30
2957;DHT22;1488;51.548;7.222;2023-05-29T01:16:11;23.80;77.20
2957;DHT22;1488;51.548;7.222;2023-05-29T01:18:45;23.80;76.90
2957;DHT22;1488;51.548;7.222;2023-05-29T01:21:20;23.80;77.10
2957;DHT22;1488;51.548;7.222;2023-05-29T01:24:03;23.80;77.10
2957;DHT22;1488;51.548;7.222;2023-05-29T01:26:42;23.80;77.00
2957;DHT22;1488;51.548;7.222;2023-05-29T01:29:14;23.80;77.10
2957;DHT22;1488;51.548;7.222;2023-05-29T01:31:42;23.80;77.10
2957;DHT22;1488;51.548;7.222;2023-05-29T01:34:10;23.80;77.00
2957;DHT22;1488;51.548;7.222;2023-05-29T01:36:37;23.80;76.80
2957;DHT22;1488;51.548;7.222;2023-05-29T01:39:04;23.70;76.70
2957;DHT22;1488;51.548;7.222;2023-05-29T01:41:32;23.70;76.70
2957;DHT22;1488;51.548;7.222;2023-05-29T01:44:03;23.70;77.50
2957;DHT22;1488;51.548;7.222;2023-05-29T01:46:30;23.70;76.50
2957;DHT22;1488;51.548;7.222;2023-05-29T01:48:57;23.70;76.50
2957;DHT22;1488;51.548;7.222;2023-05-29T01:51:24;23.70;76.50
2957;DHT22;1488;51.548;7.222;2023-05-29T01:53:51;23.70;76.40
2957;DHT22;1488;51.548;7.222;2023-05-29T01:56:18;23.70;76.50
2957;DHT22;1488;51.548;7.222;2023-05-29T01:58:46;23.70;76.50
2957;DHT22;1488;51.548;7.222;2023-05-29T02:01:15;23.70;76.50
2957;DHT22;1488;51.548;7.222;2023-05-29T02:03:41;23.70;76.40
2957;DHT22;1488;51.548;7.222;2023-05-29T02:06:08;23.70;76.50
2957;DHT22;1488;51.548;7.222;2023-05-29T02:08:36;23.70;76.50
2957;DHT22;1488;51.548;7.222;2023-05-29T02:11:02;23.70;76.40
2957;DHT22;1488;51.548;7.222;2023-05-29T02:13:31;23.70;76.40
2957;DHT22;1488;51.548;7.222;2023-05-29T02:15:58;23.70;76.30
2957;DHT22;1488;51.548;7.222;2023-05-29T02:18:26;23.70;76.10
2957;DHT22;1488;51.548;7.222;2023-05-29T02:20:53;23.70;76.20
2957;DHT22;1488;51.548;7.222;2023-05-29T02:23:20;23.70;76.40
2957;DHT22;1488;51.548;7.222;2023-05-29T02:25:47;23.70;76.30
2957;DHT22;1488;51.548;7.222;2023-05-29T02:28:14;23.70;76.30
2957;DHT22;1488;51.548;7.222;2023-05-29T02:30:42;23.70;76.40
2957;DHT22;1488;51.548;7.222;2023-05-29T02:33:09;23.60;76.10
2957;DHT22;1488;51.548;7.222;2023-05-29T02:35:37;23.60;76.10
2957;DHT22;1488;51.548;7.222;2023-05-29T02:38:04;23.60;76.10
2957;DHT22;1488;51.548;7.222;2023-05-29T02:40:31;23.70;76.20
2957;DHT22;1488;51.548;7.222;2023-05-29T02:42:58;23.60;76.30
2957;DHT22;1488;51.548;7.222;2023-05-29T02:45:24;23.60;76.10
2957;DHT22;1488;51.548;7.222;2023-05-29T02:47:51;23.60;76.20
2957;DHT22;1488;51.548;7.222;2023-05-29T02:50:18;23.60;75.80
2957;DHT22;1488;51.548;7.222;2023-05-29T02:52:46;23.60;76.10
2957;DHT22;1488;51.548;7.222;2023-05-29T02:55:13;23.60;76.00
2957;DHT22;1488;51.548;7.222;2023-05-29T02:57:40;23.60;76.00
2957;DHT22;1488;51.548;7.222;2023-05-29T03:00:08;23.60;76.10
2957;DHT22;1488;51.548;7.222;2023-05-29T03:02:36;23.60;76.00
2957;DHT22;1488;51.548;7.222;2023-05-29T03:05:03;23.60;75.90
2957;DHT22;1488;51.548;7.222;2023-05-29T03:07:30;23.60;76.00
2957;DHT22;1488;51.548;7.222;2023-05-29T03:09:58;23.60;76.80
2957;DHT22;1488;51.548;7.222;2023-05-29T03:12:25;23.60;76.10
2957;DHT22;1488;51.548;7.222;2023-05-29T03:14:53;23.60;76.80
2957;DHT22;1488;51.548;7.222;2023-05-29T03:17:21;23.60;76.00
2957;DHT22;1488;51.548;7.222;2023-05-29T03:19:48;23.60;75.90
2957;DHT22;1488;51.548;7.222;2023-05-29T03:22:16;23.60;76.80
2957;DHT22;1488;51.548;7.222;2023-05-29T03:24:43;23.60;76.00
2957;DHT22;1488;51.548;7.222;2023-05-29T03:27:11;23.60;75.90
2957;DHT22;1488;51.548;7.222;2023-05-29T03:29:38;23.60;75.80
2957;DHT22;1488;51.548;7.222;2023-05-29T03:32:05;23.60;76.70
2957;DHT22;1488;51.548;7.222;2023-05-29T03:34:32;23.50;75.70
2957;DHT22;1488;51.548;7.222;2023-05-29T03:36:59;23.50;75.80
2957;DHT22;1488;51.548;7.222;2023-05-29T03:39:27;23.60;75.90
2957;DHT22;1488;51.548;7.222;2023-05-29T03:41:54;23.60;75.80
2957;DHT22;1488;51.548;7.222;2023-05-29T03:44:22;23.50;75.70
2957;DHT22;1488;51.548;7.222;2023-05-29T03:46:49;23.50;75.70
2957;DHT22;1488;51.548;7.222;2023-05-29T03:49:16;23.50;75.70
2957;DHT22;1488;51.548;7.222;2023-05-29T03:51:43;23.50;75.70
2957;DHT22;1488;51.548;7.222;2023-05-29T03:54:10;23.50;75.70
2957;DHT22;1488;51.548;7.222;2023-05-29T03:56:37;23.50;75.70
2957;DHT22;1488;51.548;7.222;2023-05-29T03:59:03;23.50;75.70
2957;DHT22;1488;51.548;7.222;2023-05-29T04:01:32;23.50;75.60
2957;DHT22;1488;51.548;7.222;2023-05-29T04:03:58;23.50;76.50
2957;DHT22;1488;51.548;7.222;2023-05-29T04:06:26;23.50;75.50
2957;DHT22;1488;51.548;7.222;2023-05-29T04:08:53;23.50;75.40
2957;DHT22;1488;51.548;7.222;2023-05-29T04:11:19;23.50;75.60
2957;DHT22;1488;51.548;7.222;2023-05-29T04:13:47;23.50;75.60
2957;DHT22;1488;51.548;7.222;2023-05-29T04:16:14;23.50;76.30
2957;DHT22;1488;51.548;7.222;2023-05-29T04:18:43;23.50;75.50
2957;DHT22;1488;51.548;7.222;2023-05-29T04:21:10;23.50;75.70
2957;DHT22;1488;51.548;7.222;2023-05-29T04:23:37;23.40;75.60
2957;DHT22;1488;51.548;7.222;2023-05-29T04:26:04;23.50;75.60
2957;DHT22;1488;51.548;7.222;2023-05-29T04:28:31;23.50;75.70
2957;DHT22;1488;51.548;7.222;2023-05-29T04:30:58;23.50;75.60
2957;DHT22;1488;51.548;7.222;2023-05-29T04:33:26;23.40;75.50
2957;DHT22;1488;51.548;7.222;2023-05-29T04:35:55;23.50;75.70
2957;DHT22;1488;51.548;7.222;2023-05-29T04:38:22;23.50;75.70
2957;DHT22;1488;51.548;7.222;2023-05-29T04:40:50;23.50;75.80
2957;DHT22;1488;51.548;7.222;2023-05-29T04:43:17;23.50;75.60
2957;DHT22;1488;51.548;7.222;2023-05-29T04:45:44;23.40;75.60
2957;DHT22;1488;51.548;7.222;2023-05-29T04:48:11;23.40;75.50
2957;DHT22;1488;51.548;7.222;2023-05-29T04:50:38;23.40;75.70
2957;DHT22;1488;51.548;7.222;2023-05-29T04:53:06;23.40;75.70
2957;DHT22;1488;51.548;7.222;2023-05-29T04:55:33;23.40;75.70
2957;DHT22;1488;51.548;7.222;2023-05-29T04:58:00;23.50;75.90
2957;DHT22;1488;51.548;7.222;2023-05-29T05:00:27;23.40;75.70
2957;DHT22;1488;51.548;7.222;2023-05-29T05:02:54;23.40;75.80
2957;DHT22;1488;51.548;7.222;2023-05-29T05:05:21;23.40;75.70
2957;DHT22;1488;51.548;7.222;2023-05-29T05:07:48;23.40;75.70
2957;DHT22;1488;51.548;7.222;2023-05-29T05:10:16;23.50;75.90
2957;DHT22;1488;51.548;7.222;2023-05-29T05:12:43;23.50;75.90
2957;DHT22;1488;51.548;7.222;2023-05-29T05:15:10;23.40;75.80
2957;DHT22;1488;51.548;7.222;2023-05-29T05:17:37;23.40;75.70
2957;DHT22;1488;51.548;7.222;2023-05-29T05:20:05;23.40;75.80
2957;DHT22;1488;51.548;7.222;2023-05-29T05:22:34;23.50;76.00
2957;DHT22;1488;51.548;7.222;2023-05-29T05:25:01;23.40;75.70
2957;DHT22;1488;51.548;7.222;2023-05-29T05:27:30;23.40;76.60
2957;DHT22;1488;51.548;7.222;2023-05-29T05:29:57;23.40;75.70
2957;DHT22;1488;51.548;7.222;2023-05-29T05:32:24;23.50;75.90
2957;DHT22;1488;51.548;7.222;2023-05-29T05:34:51;23.50;75.90
2957;DHT22;1488;51.548;7.222;2023-05-29T05:37:18;23.50;75.90
2957;DHT22;1488;51.548;7.222;2023-05-29T05:39:45;23.40;75.70
2957;DHT22;1488;51.548;7.222;2023-05-29T05:42:12;23.50;75.90
2957;DHT22;1488;51.548;7.222;2023-05-29T05:44:40;23.40;75.70
2957;DHT22;1488;51.548;7.222;2023-05-29T05:47:07;23.50;75.90
2957;DHT22;1488;51.548;7.222;2023-05-29T05:49:34;23.50;76.00
2957;DHT22;1488;51.548;7.222;2023-05-29T05:52:00;23.50;76.00
2957;DHT22;1488;51.548;7.222;2023-05-29T05:54:27;23.40;75.80
2957;DHT22;1488;51.548;7.222;2023-05-29T05:56:54;23.50;75.90
2957;DHT22;1488;51.548;7.222;2023-05-29T05:59:21;23.50;75.80
2957;DHT22;1488;51.548;7.222;2023-05-29T06:01:49;23.50;75.90
2957;DHT22;1488;51.548;7.222;2023-05-29T06:04:17;23.50;75.90
2957;DHT22;1488;51.548;7.222;2023-05-29T06:06:44;23.50;76.00
2957;DHT22;1488;51.548;7.222;2023-05-29T06:09:11;23.50;76.10
2957;DHT22;1488;51.548;7.222;2023-05-29T06:11:39;23.50;76.00
2957;DHT22;1488;51.548;7.222;2023-05-29T06:14:06;23.50;76.00
2957;DHT22;1488;51.548;7.222;2023-05-29T06:16:33;23.50;75.90
2957;DHT22;1488;51.548;7.222;2023-05-29T06:19:01;23.50;76.70
2957;DHT22;1488;51.548;7.222;2023-05-29T06:21:28;23.50;75.90
2957;DHT22;1488;51.548;7.222;2023-05-29T06:23:55;23.50;75.70
2957;DHT22;1488;51.548;7.222;2023-05-29T06:26:22;23.50;75.80
2957;DHT22;1488;51.548;7.222;2023-05-29T06:28:50;23.50;75.90
2957;DHT22;1488;51.548;7.222;2023-05-29T06:31:17;23.50;75.80
2957;DHT22;1488;51.548;7.222;2023-05-29T06:33:44;23.50;75.70
2957;DHT22;1488;51.548;7.222;2023-05-29T06:36:12;23.50;75.80
2957;DHT22;1488;51.548;7.222;2023-05-29T06:38:39;23.50;75.70
2957;DHT22;1488;51.548;7.222;2023-05-29T06:41:06;23.50;76.00
2957;DHT22;1488;51.548;7.222;2023-05-29T06:43:33;23.50;76.10
2957;DHT22;1488;51.548;7.222;2023-05-29T06:46:00;23.50;75.90
2957;DHT22;1488;51.548;7.222;2023-05-29T06:48:27;23.60;76.10
2957;DHT22;1488;51.548;7.222;2023-05-29T06:50:53;23.50;76.10
2957;DHT22;1488;51.548;7.222;2023-05-29T06:53:22;23.60;76.80
2957;DHT22;1488;51.548;7.222;2023-05-29T06:55:48;23.50;76.70
2957;DHT22;1488;51.548;7.222;2023-05-29T06:58:15;23.60;76.70
2957;DHT22;1488;51.548;7.222;2023-05-29T07:00:42;23.50;76.60
2957;DHT22;1488;51.548;7.222;2023-05-29T07:03:09;23.60;76.90
2957;DHT22;1488;51.548;7.222;2023-05-29T07:05:35;23.60;77.70
2957;DHT22;1488;51.548;7.222;2023-05-29T07:08:02;23.60;77.00
2957;DHT22;1488;51.548;7.222;2023-05-29T07:10:30;23.60;77.10
2957;DHT22;1488;51.548;7.222;2023-05-29T07:12:57;23.60;77.20
2957;DHT22;1488;51.548;7.222;2023-05-29T07:15:24;23.60;76.90
2957;DHT22;1488;51.548;7.222;2023-05-29T07:17:51;23.60;76.80
2957;DHT22;1488;51.548;7.222;2023-05-29T07:20:18;23.60;76.70
2957;DHT22;1488;51.548;7.222;2023-05-29T07:22:45;23.60;76.70
2957;DHT22;1488;51.548;7.222;2023-05-29T07:25:12;23.60;77.00
2957;DHT22;1488;51.548;7.222;2023-05-29T07:27:40;23.60;77.00
2957;DHT22;1488;51.548;7.222;2023-05-29T07:30:08;23.60;77.10
2957;DHT22;1488;51.548;7.222;2023-05-29T07:32:35;23.70;77.20
2957;DHT22;1488;51.548;7.222;2023-05-29T07:35:01;23.70;77.20
2957;DHT22;1488;51.548;7.222;2023-05-29T07:37:28;23.70;77.20
2957;DHT22;1488;51.548;7.222;2023-05-29T07:39:55;23.70;77.20
2957;DHT22;1488;51.548;7.222;2023-05-29T07:42:22;23.70;77.20
2957;DHT22;1488;51.548;7.222;2023-05-29T07:44:51;23.70;77.30
2957;DHT22;1488;51.548;7.222;2023-05-29T07:47:18;23.70;77.20
2957;DHT22;1488;51.548;7.222;2023-05-29T07:49:45;23.70;77.20
2957;DHT22;1488;51.548;7.222;2023-05-29T07:52:11;23.70;77.20
2957;DHT22;1488;51.548;7.222;2023-05-29T07:54:38;23.70;77.10
2957;DHT22;1488;51.548;7.222;2023-05-29T07:57:05;23.70;77.10
2957;DHT22;1488;51.548;7.222;2023-05-29T07:59:35;23.70;77.10
2957;DHT22;1488;51.548;7.222;2023-05-29T08:02:03;23.70;77.00
2957;DHT22;1488;51.548;7.222;2023-05-29T08:04:30;23.70;77.00
2957;DHT22;1488;51.548;7.222;2023-05-29T08:06:57;23.70;77.00
2957;DHT22;1488;51.548;7.222;2023-05-29T08:09:24;23.80;78.10
2957;DHT22;1488;51.548;7.222;2023-05-29T08:11:51;23.80;77.30
2957;DHT22;1488;51.548;7.222;2023-05-29T08:14:18;23.80;77.30
2957;DHT22;1488;51.548;7.222;2023-05-29T08:16:45;23.80;77.10
2957;DHT22;1488;51.548;7.222;2023-05-29T08:19:13;23.80;77.30
2957;DHT22;1488;51.548;7.222;2023-05-29T08:21:40;23.80;77.20
2957;DHT22;1488;51.548;7.222;2023-05-29T08:24:07;23.90;77.40
2957;DHT22;1488;51.548;7.222;2023-05-29T08:26:34;23.90;77.30
2957;DHT22;1488;51.548;7.222;2023-05-29T08:29:01;23.90;77.30
2957;DHT22;1488;51.548;7.222;2023-05-29T08:31:29;23.90;77.20
2957;DHT22;1488;51.548;7.222;2023-05-29T08:33:56;23.90;77.20
2957;DHT22;1488;51.548;7.222;2023-05-29T08:36:25;24.00;77.50
2957;DHT22;1488;51.548;7.222;2023-05-29T08:38:52;24.00;77.30
2957;DHT22;1488;51.548;7.222;2023-05-29T08:41:23;24.00;77.30
2957;DHT22;1488;51.548;7.222;2023-05-29T08:43:52;24.10;77.40
2957;DHT22;1488;51.548;7.222;2023-05-29T08:46:19;24.10;77.50
2957;DHT22;1488;51.548;7.222;2023-05-29T08:48:48;24.10;77.50
2957;DHT22;1488;51.548;7.222;2023-05-29T08:51:17;24.20;77.40
2957;DHT22;1488;51.548;7.222;2023-05-29T08:53:47;24.20;77.50
2957;DHT22;1488;51.548;7.222;2023-05-29T08:56:14;24.20;77.40
2957;DHT22;1488;51.548;7.222;2023-05-29T08:58:41;24.20;77.40
2957;DHT22;1488;51.548;7.222;2023-05-29T09:01:09;24.20;77.50
2957;DHT22;1488;51.548;7.222;2023-05-29T09:03:36;24.20;77.70
2957;DHT22;1488;51.548;7.222;2023-05-29T09:06:04;24.20;77.60
2957;DHT22;1488;51.548;7.222;2023-05-29T09:08:32;24.30;77.60
2957;DHT22;1488;51.548;7.222;2023-05-29T09:11:01;24.30;77.60
2957;DHT22;1488;51.548;7.222;2023-05-29T09:13:28;24.30;77.50
2957;DHT22;1488;51.548;7.222;2023-05-29T09:15:57;24.30;77.60
2957;DHT22;1488;51.548;7.222;2023-05-29T09:18:27;24.40;77.70
2957;DHT22;1488;51.548;7.222;2023-05-29T09:20:54;24.30;77.60
2957;DHT22;1488;51.548;7.222;2023-05-29T09:23:21;24.40;77.80
2957;DHT22;1488;51.548;7.222;2023-05-29T09:25:53;24.40;77.80
2957;DHT22;1488;51.548;7.222;2023-05-29T09:28:22;24.40;77.90
2957;DHT22;1488;51.548;7.222;2023-05-29T09:30:51;24.40;77.90
2957;DHT22;1488;51.548;7.222;2023-05-29T09:33:18;24.40;77.80
2957;DHT22;1488;51.548;7.222;2023-05-29T09:35:46;24.40;77.90
2957;DHT22;1488;51.548;7.222;2023-05-29T09:38:15;24.50;78.10
2957;DHT22;1488;51.548;7.222;2023-05-29T09:40:42;24.50;78.30
2957;DHT22;1488;51.548;7.222;2023-05-29T09:43:12;24.50;78.00
2957;DHT22;1488;51.548;7.222;2023-05-29T09:45:42;24.50;78.10
2957;DHT22;1488;51.548;7.222;2023-05-29T09:48:13;24.60;77.90
2957;DHT22;1488;51.548;7.222;2023-05-29T09:50:40;24.60;77.90
2957;DHT22;1488;51.548;7.222;2023-05-29T09:53:17;24.60;78.00
2957;DHT22;1488;51.548;7.222;2023-05-29T09:55:47;24.60;78.10
2957;DHT22;1488;51.548;7.222;2023-05-29T09:58:16;24.60;78.20
2957;DHT22;1488;51.548;7.222;2023-05-29T10:00:45;24.60;78.00
2957;DHT22;1488;51.548;7.222;2023-05-29T10:03:12;24.70;79.00
2957;DHT22;1488;51.548;7.222;2023-05-29T10:05:40;24.70;78.30
2957;DHT22;1488;51.548;7.222;2023-05-29T10:08:10;24.70;78.20
2957;DHT22;1488;51.548;7.222;2023-05-29T10:10:40;24.70;78.20
2957;DHT22;1488;51.548;7.222;2023-05-29T10:13:11;24.70;78.40
2957;DHT22;1488;51.548;7.222;2023-05-29T10:15:40;24.70;78.50
2957;DHT22;1488;51.548;7.222;2023-05-29T10:18:20;24.80;78.70
2957;DHT22;1488;51.548;7.222;2023-05-29T10:20:50;24.80;78.60
2957;DHT22;1488;51.548;7.222;2023-05-29T10:23:19;24.80;78.50
2957;DHT22;1488;51.548;7.222;2023-05-29T10:25:50;24.80;78.90
2957;DHT22;1488;51.548;7.222;2023-05-29T10:28:18;24.80;79.10
2957;DHT22;1488;51.548;7.222;2023-05-29T10:30:49;24.90;79.70
2957;DHT22;1488;51.548;7.222;2023-05-29T10:33:39;24.90;80.00
2957;DHT22;1488;51.548;7.222;2023-05-29T10:36:12;24.90;80.20
2957;DHT22;1488;51.548;7.222;2023-05-29T10:38:41;24.90;81.10
2957;DHT22;1488;51.548;7.222;2023-05-29T10:41:30;24.90;82.40
2957;DHT22;1488;51.548;7.222;2023-05-29T10:43:59;25.00;81.00
2957;DHT22;1488;51.548;7.222;2023-05-29T10:49:32;25.00;80.70
2957;DHT22;1488;51.548;7.222;2023-05-29T10:52:00;25.00;80.10
2957;DHT22;1488;51.548;7.222;2023-05-29T10:54:27;25.00;79.80
2957;DHT22;1488;51.548;7.222;2023-05-29T10:56:56;25.00;79.70
2957;DHT22;1488;51.548;7.222;2023-05-29T10:59:23;25.00;80.00
2957;DHT22;1488;51.548;7.222;2023-05-29T11:01:53;25.00;79.80
2957;DHT22;1488;51.548;7.222;2023-05-29T11:04:29;25.00;79.70
2957;DHT22;1488;51.548;7.222;2023-05-29T11:07:02;25.10;80.20
2957;DHT22;1488;51.548;7.222;2023-05-29T11:09:35;25.10;79.80
2957;DHT22;1488;51.548;7.222;2023-05-29T11:12:17;25.10;79.80
2957;DHT22;1488;51.548;7.222;2023-05-29T11:15:03;25.10;79.60
2957;DHT22;1488;51.548;7.222;2023-05-29T11:17:43;25.10;79.60
2957;DHT22;1488;51.548;7.222;2023-05-29T11:20:28;25.10;79.50
2957;DHT22;1488;51.548;7.222;2023-05-29T11:23:05;25.20;79.50
2957;DHT22;1488;51.548;7.222;2023-05-29T11:25:36;25.10;79.60
2957;DHT22;1488;51.548;7.222;2023-05-29T11:28:04;25.20;80.40
2957;DHT22;1488;51.548;7.222;2023-05-29T11:30:44;25.10;79.50
2957;DHT22;1488;51.548;7.222;2023-05-29T11:33:19;25.20;79.50
2957;DHT22;1488;51.548;7.222;2023-05-29T11:35:53;25.20;79.50
2957;DHT22;1488;51.548;7.222;2023-05-29T11:38:23;25.20;79.50
2957;DHT22;1488;51.548;7.222;2023-05-29T11:40:50;25.20;79.50
2957;DHT22;1488;51.548;7.222;2023-05-29T11:43:17;25.20;79.70
2957;DHT22;1488;51.548;7.222;2023-05-29T11:45:43;25.20;79.80
2957;DHT22;1488;51.548;7.222;2023-05-29T11:48:10;25.20;79.60
2957;DHT22;1488;51.548;7.222;2023-05-29T11:50:37;25.20;79.60
2957;DHT22;1488;51.548;7.222;2023-05-29T11:53:06;25.20;79.70
2957;DHT22;1488;51.548;7.222;2023-05-29T11:55:34;25.20;80.10
2957;DHT22;1488;51.548;7.222;2023-05-29T11:58:02;25.20;80.10
2957;DHT22;1488;51.548;7.222;2023-05-29T12:00:31;25.20;79.80
2957;DHT22;1488;51.548;7.222;2023-05-29T12:02:59;25.20;79.60
2957;DHT22;1488;51.548;7.222;2023-05-29T12:05:29;25.20;79.50
2957;DHT22;1488;51.548;7.222;2023-05-29T12:07:56;25.20;79.60
2957;DHT22;1488;51.548;7.222;2023-05-29T12:10:23;25.20;79.80
2957;DHT22;1488;51.548;7.222;2023-05-29T12:12:53;25.20;79.50
2957;DHT22;1488;51.548;7.222;2023-05-29T12:15:20;25.20;79.70
2957;DHT22;1488;51.548;7.222;2023-05-29T12:17:48;25.30;79.50
2957;DHT22;1488;51.548;7.222;2023-05-29T12:20:16;25.20;79.50
2957;DHT22;1488;51.548;7.222;2023-05-29T12:22:44;25.20;79.50
2957;DHT22;1488;51.548;7.222;2023-05-29T12:25:12;25.30;79.60
2957;DHT22;1488;51.548;7.222;2023-05-29T12:27:40;25.30;79.50
2957;DHT22;1488;51.548;7.222;2023-05-29T12:30:14;25.30;79.50
2957;DHT22;1488;51.548;7.222;2023-05-29T12:32:43;25.20;79.50
2957;DHT22;1488;51.548;7.222;2023-05-29T12:35:15;25.30;79.80
2957;DHT22;1488;51.548;7.222;2023-05-29T12:37:44;25.30;79.90
2957;DHT22;1488;51.548;7.222;2023-05-29T12:40:15;25.30;79.90
2957;DHT22;1488;51.548;7.222;2023-05-29T12:42:42;25.30;79.90
2957;DHT22;1488;51.548;7.222;2023-05-29T12:45:09;25.30;79.70
2957;DHT22;1488;51.548;7.222;2023-05-29T12:47:44;25.30;79.70
2957;DHT22;1488;51.548;7.222;2023-05-29T12:50:23;25.30;79.50
2957;DHT22;1488;51.548;7.222;2023-05-29T12:52:58;25.30;79.50
2957;DHT22;1488;51.548;7.222;2023-05-29T12:55:25;25.30;79.60
2957;DHT22;1488;51.548;7.222;2023-05-29T12:57:53;25.30;79.60
2957;DHT22;1488;51.548;7.222;2023-05-29T13:00:20;25.20;79.30
2957;DHT22;1488;51.548;7.222;2023-05-29T13:02:49;25.30;79.50
2957;DHT22;1488;51.548;7.222;2023-05-29T13:05:16;25.30;79.40
2957;DHT22;1488;51.548;7.222;2023-05-29T13:07:45;25.30;79.60
2957;DHT22;1488;51.548;7.222;2023-05-29T13:10:13;25.30;79.60
2957;DHT22;1488;51.548;7.222;2023-05-29T13:12:40;25.20;80.40
2957;DHT22;1488;51.548;7.222;2023-05-29T13:15:07;25.30;79.70
2957;DHT22;1488;51.548;7.222;2023-05-29T13:17:34;25.30;79.70
2957;DHT22;1488;51.548;7.222;2023-05-29T13:20:03;25.30;79.70
2957;DHT22;1488;51.548;7.222;2023-05-29T13:22:32;25.30;79.60
2957;DHT22;1488;51.548;7.222;2023-05-29T13:24:59;25.30;79.70
2957;DHT22;1488;51.548;7.222;2023-05-29T13:27:27;25.30;80.40
2957;DHT22;1488;51.548;7.222;2023-05-29T13:29:54;25.30;79.60
2957;DHT22;1488;51.548;7.222;2023-05-29T13:32:21;25.30;79.70
2957;DHT22;1488;51.548;7.222;2023-05-29T13:34:47;25.30;79.70
2957;DHT22;1488;51.548;7.222;2023-05-29T13:37:16;25.30;79.70
2957;DHT22;1488;51.548;7.222;2023-05-29T13:39:42;25.30;79.70
2957;DHT22;1488;51.548;7.222;2023-05-29T13:42:09;25.30;79.80
2957;DHT22;1488;51.548;7.222;2023-05-29T13:44:37;25.20;79.70
2957;DHT22;1488;51.548;7.222;2023-05-29T13:47:04;25.30;79.90
2957;DHT22;1488;51.548;7.222;2023-05-29T13:49:31;25.30;80.00
2957;DHT22;1488;51.548;7.222;2023-05-29T13:51:58;25.30;79.90
2957;DHT22;1488;51.548;7.222;2023-05-29T13:54:26;25.20;79.90
2957;DHT22;1488;51.548;7.222;2023-05-29T13:56:55;25.30;79.90
2957;DHT22;1488;51.548;7.222;2023-05-29T13:59:22;25.20;79.80
2957;DHT22;1488;51.548;7.222;2023-05-29T14:01:49;25.30;79.70
2957;DHT22;1488;51.548;7.222;2023-05-29T14:04:16;25.20;79.50
2957;DHT22;1488;51.548;7.222;2023-05-29T14:06:43;25.20;79.40
2957;DHT22;1488;51.548;7.222;2023-05-29T14:09:10;25.20;79.60
2957;DHT22;1488;51.548;7.222;2023-05-29T14:11:38;25.20;80.00
2957;DHT22;1488;51.548;7.222;2023-05-29T14:14:05;25.20;80.10
2957;DHT22;1488;51.548;7.222;2023-05-29T14:16:33;25.20;80.20
2957;DHT22;1488;51.548;7.222;2023-05-29T14:19:00;25.20;80.30
2957;DHT22;1488;51.548;7.222;2023-05-29T14:21:26;25.20;80.30
2957;DHT22;1488;51.548;7.222;2023-05-29T14:23:53;25.20;80.20
2957;DHT22;1488;51.548;7.222;2023-05-29T14:26:20;25.20;80.20
2957;DHT22;1488;51.548;7.222;2023-05-29T14:28:48;25.20;80.10
2957;DHT22;1488;51.548;7.222;2023-05-29T14:31:15;25.20;80.20
2957;DHT22;1488;51.548;7.222;2023-05-29T14:33:42;25.20;80.10
2957;DHT22;1488;51.548;7.222;2023-05-29T14:36:09;25.20;80.00
2957;DHT22;1488;51.548;7.222;2023-05-29T14:38:35;25.30;80.10
2957;DHT22;1488;51.548;7.222;2023-05-29T14:41:03;25.30;80.00
2957;DHT22;1488;51.548;7.222;2023-05-29T14:43:29;25.30;80.00
2957;DHT22;1488;51.548;7.222;2023-05-29T14:45:58;25.20;80.10
2957;DHT22;1488;51.548;7.222;2023-05-29T14:48:24;25.20;79.90
2957;DHT22;1488;51.548;7.222;2023-05-29T14:50:51;25.20;79.80
2957;DHT22;1488;51.548;7.222;2023-05-29T14:53:18;25.20;79.80
2957;DHT22;1488;51.548;7.222;2023-05-29T14:55:46;25.20;80.60
2957;DHT22;1488;51.548;7.222;2023-05-29T14:58:13;25.20;79.80
2957;DHT22;1488;51.548;7.222;2023-05-29T15:00:40;25.20;79.80
2957;DHT22;1488;51.548;7.222;2023-05-29T15:03:08;25.20;79.90
2957;DHT22;1488;51.548;7.222;2023-05-29T15:05:35;25.20;79.90
2957;DHT22;1488;51.548;7.222;2023-05-29T15:08:01;25.20;79.80
2957;DHT22;1488;51.548;7.222;2023-05-29T15:10:28;25.20;79.90
2957;DHT22;1488;51.548;7.222;2023-05-29T15:12:55;25.20;79.90
2957;DHT22;1488;51.548;7.222;2023-05-29T15:15:23;25.20;79.90
2957;DHT22;1488;51.548;7.222;2023-05-29T15:17:51;25.20;79.90
2957;DHT22;1488;51.548;7.222;2023-05-29T15:20:23;25.20;80.00
2957;DHT22;1488;51.548;7.222;2023-05-29T15:22:50;25.20;79.90
2957;DHT22;1488;51.548;7.222;2023-05-29T15:25:18;25.20;80.00
2957;DHT22;1488;51.548;7.222;2023-05-29T15:27:46;25.20;79.90
2957;DHT22;1488;51.548;7.222;2023-05-29T15:30:15;25.20;80.00
2957;DHT22;1488;51.548;7.222;2023-05-29T15:32:43;25.20;80.30
2957;DHT22;1488;51.548;7.222;2023-05-29T15:35:11;25.20;80.40
2957;DHT22;1488;51.548;7.222;2023-05-29T15:37:40;25.20;80.40
2957;DHT22;1488;51.548;7.222;2023-05-29T15:40:09;25.20;80.30
2957;DHT22;1488;51.548;7.222;2023-05-29T15:42:36;25.20;80.20
2957;DHT22;1488;51.548;7.222;2023-05-29T15:45:04;25.10;80.10
2957;DHT22;1488;51.548;7.222;2023-05-29T15:47:31;25.10;80.10
2957;DHT22;1488;51.548;7.222;2023-05-29T15:49:58;25.10;80.40
2957;DHT22;1488;51.548;7.222;2023-05-29T15:52:25;25.10;81.20
2957;DHT22;1488;51.548;7.222;2023-05-29T15:54:53;25.10;80.30
2957;DHT22;1488;51.548;7.222;2023-05-29T15:57:20;25.10;80.50
2957;DHT22;1488;51.548;7.222;2023-05-29T15:59:47;25.10;80.50
2957;DHT22;1488;51.548;7.222;2023-05-29T16:02:14;25.10;80.50
2957;DHT22;1488;51.548;7.222;2023-05-29T16:04:41;25.10;80.40
2957;DHT22;1488;51.548;7.222;2023-05-29T16:07:08;25.10;80.30
2957;DHT22;1488;51.548;7.222;2023-05-29T16:09:35;25.10;80.10
2957;DHT22;1488;51.548;7.222;2023-05-29T16:12:05;25.10;80.20